sensor_id;sensor_type;location;lat;lon;timestamp;P1;durP1;ratioP1;P2;durP2;ratioP2
7320;SDS011;3701;49.346;8.798;2022-07-10T00:01:58;5.50;;;4.90;;
7320;SDS011;3701;49.346;8.798;2022-07-10T00:04:26;5.23;;;4.73;;
7320;SDS011;3701;49.346;8.798;2022-07-10T00:06:56;5.83;;;5.23;;
7320;SDS011;3701;49.346;8.798;2022-07-10T00:09:23;6.03;;;5.10;;
7320;SDS011;3701;49.346;8.798;2022-07-10T00:11:48;5.53;;;4.77;;
7320;SDS011;3701;49.346;8.798;2022-07-10T00:14:16;8.17;;;5.80;;
7320;SDS011;3701;49.346;8.798;2022-07-10T00:16:41;4.47;;;4.07;;
7320;SDS011;3701;49.346;8.798;2022-07-10T00:19:07;8.60;;;4.87;;
7320;SDS011;3701;49.346;8.798;2022-07-10T00:21:32;9.30;;;5.10;;
7320;SDS011;3701;49.346;8.798;2022-07-10T00:23:57;5.57;;;4.67;;
7320;SDS011;3701;49.346;8.798;2022-07-10T00:26:23;7.37;;;5.27;;
7320;SDS011;3701;49.346;8.798;2022-07-10T00:28:50;6.37;;;5.40;;
7320;SDS011;3701;49.346;8.798;2022-07-10T00:31:18;4.13;;;3.80;;
7320;SDS011;3701;49.346;8.798;2022-07-10T00:33:43;6.00;;;5.40;;
7320;SDS011;3701;49.346;8.798;2022-07-10T00:36:09;6.07;;;5.43;;
7320;SDS011;3701;49.346;8.798;2022-07-10T00:38:37;7.30;;;4.90;;
7320;SDS011;3701;49.346;8.798;2022-07-10T00:41:02;11.73;;;5.93;;
7320;SDS011;3701;49.346;8.798;2022-07-10T00:43:27;5.23;;;4.70;;
7320;SDS011;3701;49.346;8.798;2022-07-10T00:45:53;5.90;;;5.20;;
7320;SDS011;3701;49.346;8.798;2022-07-10T00:48:20;6.30;;;5.10;;
7320;SDS011;3701;49.346;8.798;2022-07-10T00:50:48;5.63;;;4.57;;
7320;SDS011;3701;49.346;8.798;2022-07-10T00:53:13;7.43;;;5.47;;
7320;SDS011;3701;49.346;8.798;2022-07-10T00:55:39;5.70;;;4.63;;
7320;SDS011;3701;49.346;8.798;2022-07-10T00:58:07;5.83;;;4.70;;
7320;SDS011;3701;49.346;8.798;2022-07-10T01:00:35;6.47;;;5.33;;
7320;SDS011;3701;49.346;8.798;2022-07-10T01:03:03;7.93;;;5.40;;
7320;SDS011;3701;49.346;8.798;2022-07-10T01:05:29;6.40;;;5.73;;
7320;SDS011;3701;49.346;8.798;2022-07-10T01:07:57;6.67;;;5.50;;
7320;SDS011;3701;49.346;8.798;2022-07-10T01:10:22;6.80;;;5.60;;
7320;SDS011;3701;49.346;8.798;2022-07-10T01:12:47;6.27;;;5.70;;
7320;SDS011;3701;49.346;8.798;2022-07-10T01:15:13;6.40;;;5.67;;
7320;SDS011;3701;49.346;8.798;2022-07-10T01:17:38;6.50;;;5.80;;
7320;SDS011;3701;49.346;8.798;2022-07-10T01:20:07;7.70;;;6.10;;
7320;SDS011;3701;49.346;8.798;2022-07-10T01:22:33;7.30;;;5.33;;
7320;SDS011;3701;49.346;8.798;2022-07-10T01:25:02;6.27;;;5.20;;
7320;SDS011;3701;49.346;8.798;2022-07-10T01:27:28;6.37;;;4.80;;
7320;SDS011;3701;49.346;8.798;2022-07-10T01:29:53;6.53;;;5.00;;
7320;SDS011;3701;49.346;8.798;2022-07-10T01:32:19;7.10;;;5.03;;
7320;SDS011;3701;49.346;8.798;2022-07-10T01:34:44;6.33;;;4.57;;
7320;SDS011;3701;49.346;8.798;2022-07-10T01:37:12;7.20;;;5.67;;
7320;SDS011;3701;49.346;8.798;2022-07-10T01:39:37;7.23;;;6.00;;
7320;SDS011;3701;49.346;8.798;2022-07-10T01:42:02;5.50;;;5.00;;
7320;SDS011;3701;49.346;8.798;2022-07-10T01:44:30;7.87;;;5.27;;
7320;SDS011;3701;49.346;8.798;2022-07-10T01:46:56;7.00;;;5.17;;
7320;SDS011;3701;49.346;8.798;2022-07-10T01:49:24;6.37;;;5.10;;
7320;SDS011;3701;49.346;8.798;2022-07-10T01:51:49;5.47;;;4.80;;
7320;SDS011;3701;49.346;8.798;2022-07-10T01:54:17;5.83;;;4.90;;
7320;SDS011;3701;49.346;8.798;2022-07-10T01:56:45;6.67;;;5.20;;
7320;SDS011;3701;49.346;8.798;2022-07-10T01:59:10;6.07;;;5.00;;
7320;SDS011;3701;49.346;8.798;2022-07-10T02:01:35;6.90;;;5.60;;
7320;SDS011;3701;49.346;8.798;2022-07-10T02:04:01;6.50;;;5.30;;
7320;SDS011;3701;49.346;8.798;2022-07-10T02:06:48;6.83;;;5.70;;
7320;SDS011;3701;49.346;8.798;2022-07-10T02:09:15;6.70;;;6.00;;
7320;SDS011;3701;49.346;8.798;2022-07-10T02:11:41;8.40;;;5.50;;
7320;SDS011;3701;49.346;8.798;2022-07-10T02:14:09;8.80;;;5.73;;
7320;SDS011;3701;49.346;8.798;2022-07-10T02:16:34;8.30;;;5.80;;
7320;SDS011;3701;49.346;8.798;2022-07-10T02:19:00;10.27;;;5.40;;
7320;SDS011;3701;49.346;8.798;2022-07-10T02:21:29;5.90;;;5.10;;
7320;SDS011;3701;49.346;8.798;2022-07-10T02:23:56;6.40;;;5.80;;
7320;SDS011;3701;49.346;8.798;2022-07-10T02:26:22;10.37;;;5.90;;
7320;SDS011;3701;49.346;8.798;2022-07-10T02:28:47;7.43;;;6.20;;
7320;SDS011;3701;49.346;8.798;2022-07-10T02:31:15;7.10;;;5.70;;
7320;SDS011;3701;49.346;8.798;2022-07-10T02:33:40;9.60;;;6.90;;
7320;SDS011;3701;49.346;8.798;2022-07-10T02:36:07;7.30;;;5.57;;
7320;SDS011;3701;49.346;8.798;2022-07-10T02:38:33;10.13;;;5.13;;
7320;SDS011;3701;49.346;8.798;2022-07-10T02:40:58;8.90;;;5.63;;
7320;SDS011;3701;49.346;8.798;2022-07-10T02:43:23;6.97;;;5.70;;
7320;SDS011;3701;49.346;8.798;2022-07-10T02:45:51;5.33;;;4.80;;
7320;SDS011;3701;49.346;8.798;2022-07-10T02:48:19;6.83;;;5.40;;
7320;SDS011;3701;49.346;8.798;2022-07-10T02:50:47;7.83;;;5.40;;
7320;SDS011;3701;49.346;8.798;2022-07-10T02:53:17;7.53;;;5.97;;
7320;SDS011;3701;49.346;8.798;2022-07-10T02:55:42;12.00;;;6.00;;
7320;SDS011;3701;49.346;8.798;2022-07-10T02:58:07;5.90;;;5.30;;
7320;SDS011;3701;49.346;8.798;2022-07-10T03:00:35;8.03;;;5.50;;
7320;SDS011;3701;49.346;8.798;2022-07-10T03:03:01;9.33;;;5.40;;
7320;SDS011;3701;49.346;8.798;2022-07-10T03:05:27;8.53;;;5.87;;
7320;SDS011;3701;49.346;8.798;2022-07-10T03:07:52;9.90;;;6.30;;
7320;SDS011;3701;49.346;8.798;2022-07-10T03:10:18;6.97;;;5.97;;
7320;SDS011;3701;49.346;8.798;2022-07-10T03:12:44;7.97;;;5.10;;
7320;SDS011;3701;49.346;8.798;2022-07-10T03:15:14;8.23;;;5.50;;
7320;SDS011;3701;49.346;8.798;2022-07-10T03:17:41;10.23;;;5.40;;
7320;SDS011;3701;49.346;8.798;2022-07-10T03:20:06;10.40;;;5.93;;
7320;SDS011;3701;49.346;8.798;2022-07-10T03:22:35;7.37;;;4.93;;
7320;SDS011;3701;49.346;8.798;2022-07-10T03:25:03;11.63;;;5.90;;
7320;SDS011;3701;49.346;8.798;2022-07-10T03:27:36;6.90;;;5.57;;
7320;SDS011;3701;49.346;8.798;2022-07-10T03:30:01;9.60;;;5.70;;
7320;SDS011;3701;49.346;8.798;2022-07-10T03:32:27;11.77;;;6.17;;
7320;SDS011;3701;49.346;8.798;2022-07-10T03:34:53;7.67;;;5.73;;
7320;SDS011;3701;49.346;8.798;2022-07-10T03:37:20;7.10;;;5.67;;
7320;SDS011;3701;49.346;8.798;2022-07-10T03:39:48;10.20;;;5.47;;
7320;SDS011;3701;49.346;8.798;2022-07-10T03:42:13;14.40;;;4.90;;
7320;SDS011;3701;49.346;8.798;2022-07-10T03:44:43;11.93;;;6.60;;
7320;SDS011;3701;49.346;8.798;2022-07-10T03:47:09;12.17;;;4.90;;
7320;SDS011;3701;49.346;8.798;2022-07-10T03:49:34;5.63;;;4.37;;
7320;SDS011;3701;49.346;8.798;2022-07-10T03:52:00;8.73;;;4.90;;
7320;SDS011;3701;49.346;8.798;2022-07-10T03:54:29;6.93;;;4.47;;
7320;SDS011;3701;49.346;8.798;2022-07-10T03:56:55;9.70;;;4.93;;
7320;SDS011;3701;49.346;8.798;2022-07-10T03:59:39;7.77;;;3.90;;
7320;SDS011;3701;49.346;8.798;2022-07-10T04:02:04;8.67;;;3.80;;
7320;SDS011;3701;49.346;8.798;2022-07-10T04:04:29;11.57;;;3.57;;
7320;SDS011;3701;49.346;8.798;2022-07-10T04:06:57;11.23;;;3.67;;
7320;SDS011;3701;49.346;8.798;2022-07-10T04:09:23;7.67;;;3.00;;
7320;SDS011;3701;49.346;8.798;2022-07-10T04:11:48;3.37;;;2.60;;
7320;SDS011;3701;49.346;8.798;2022-07-10T04:14:13;5.83;;;2.93;;
7320;SDS011;3701;49.346;8.798;2022-07-10T04:16:38;5.63;;;3.17;;
7320;SDS011;3701;49.346;8.798;2022-07-10T04:19:08;6.43;;;2.93;;
7320;SDS011;3701;49.346;8.798;2022-07-10T04:21:36;12.00;;;2.63;;
7320;SDS011;3701;49.346;8.798;2022-07-10T04:24:02;6.97;;;2.70;;
7320;SDS011;3701;49.346;8.798;2022-07-10T04:26:28;7.97;;;2.60;;
7320;SDS011;3701;49.346;8.798;2022-07-10T04:28:53;20.47;;;3.90;;
7320;SDS011;3701;49.346;8.798;2022-07-10T04:31:20;7.67;;;3.17;;
7320;SDS011;3701;49.346;8.798;2022-07-10T04:33:48;8.57;;;3.20;;
7320;SDS011;3701;49.346;8.798;2022-07-10T04:36:16;6.27;;;2.10;;
7320;SDS011;3701;49.346;8.798;2022-07-10T04:38:44;7.83;;;2.30;;
7320;SDS011;3701;49.346;8.798;2022-07-10T04:41:11;11.10;;;2.43;;
7320;SDS011;3701;49.346;8.798;2022-07-10T04:43:39;3.63;;;2.03;;
7320;SDS011;3701;49.346;8.798;2022-07-10T04:46:11;3.23;;;1.80;;
7320;SDS011;3701;49.346;8.798;2022-07-10T04:48:36;2.47;;;1.90;;
7320;SDS011;3701;49.346;8.798;2022-07-10T04:51:04;12.10;;;2.97;;
7320;SDS011;3701;49.346;8.798;2022-07-10T04:53:33;10.27;;;2.30;;
7320;SDS011;3701;49.346;8.798;2022-07-10T04:56:01;6.23;;;2.27;;
7320;SDS011;3701;49.346;8.798;2022-07-10T04:58:27;5.77;;;1.70;;
7320;SDS011;3701;49.346;8.798;2022-07-10T05:00:52;5.47;;;1.67;;
7320;SDS011;3701;49.346;8.798;2022-07-10T05:03:17;6.83;;;1.70;;
7320;SDS011;3701;49.346;8.798;2022-07-10T05:05:43;5.07;;;1.83;;
7320;SDS011;3701;49.346;8.798;2022-07-10T05:08:09;6.53;;;1.43;;
7320;SDS011;3701;49.346;8.798;2022-07-10T05:10:34;6.03;;;1.50;;
7320;SDS011;3701;49.346;8.798;2022-07-10T05:13:02;2.00;;;1.03;;
7320;SDS011;3701;49.346;8.798;2022-07-10T05:15:28;3.20;;;1.30;;
7320;SDS011;3701;49.346;8.798;2022-07-10T05:17:53;4.77;;;1.37;;
7320;SDS011;3701;49.346;8.798;2022-07-10T05:20:20;3.20;;;1.33;;
7320;SDS011;3701;49.346;8.798;2022-07-10T05:22:50;6.63;;;1.43;;
7320;SDS011;3701;49.346;8.798;2022-07-10T05:25:18;2.27;;;1.30;;
7320;SDS011;3701;49.346;8.798;2022-07-10T05:27:43;2.80;;;1.10;;
7320;SDS011;3701;49.346;8.798;2022-07-10T05:30:13;2.63;;;1.10;;
7320;SDS011;3701;49.346;8.798;2022-07-10T05:32:42;2.37;;;1.00;;
7320;SDS011;3701;49.346;8.798;2022-07-10T05:35:15;1.97;;;1.17;;
7320;SDS011;3701;49.346;8.798;2022-07-10T05:37:41;3.00;;;1.07;;
7320;SDS011;3701;49.346;8.798;2022-07-10T05:40:09;2.40;;;1.07;;
7320;SDS011;3701;49.346;8.798;2022-07-10T05:42:35;6.17;;;1.10;;
7320;SDS011;3701;49.346;8.798;2022-07-10T05:45:03;2.20;;;0.90;;
7320;SDS011;3701;49.346;8.798;2022-07-10T05:47:29;4.30;;;1.13;;
7320;SDS011;3701;49.346;8.798;2022-07-10T05:49:54;6.30;;;1.43;;
7320;SDS011;3701;49.346;8.798;2022-07-10T05:52:20;3.10;;;1.20;;
7320;SDS011;3701;49.346;8.798;2022-07-10T05:54:45;3.67;;;1.20;;
7320;SDS011;3701;49.346;8.798;2022-07-10T05:57:10;3.33;;;1.50;;
7320;SDS011;3701;49.346;8.798;2022-07-10T05:59:36;1.47;;;1.20;;
7320;SDS011;3701;49.346;8.798;2022-07-10T06:02:01;2.50;;;1.10;;
7320;SDS011;3701;49.346;8.798;2022-07-10T06:04:29;2.13;;;0.93;;
7320;SDS011;3701;49.346;8.798;2022-07-10T06:06:55;2.10;;;0.93;;
7320;SDS011;3701;49.346;8.798;2022-07-10T06:09:21;2.20;;;1.17;;
7320;SDS011;3701;49.346;8.798;2022-07-10T06:11:48;2.00;;;1.13;;
7320;SDS011;3701;49.346;8.798;2022-07-10T06:14:14;4.67;;;1.20;;
7320;SDS011;3701;49.346;8.798;2022-07-10T06:16:39;2.30;;;1.10;;
7320;SDS011;3701;49.346;8.798;2022-07-10T06:19:05;4.03;;;1.07;;
7320;SDS011;3701;49.346;8.798;2022-07-10T06:21:33;2.50;;;1.03;;
7320;SDS011;3701;49.346;8.798;2022-07-10T06:23:59;6.30;;;1.20;;
7320;SDS011;3701;49.346;8.798;2022-07-10T06:26:24;1.00;;;0.80;;
7320;SDS011;3701;49.346;8.798;2022-07-10T06:28:50;3.40;;;1.07;;
7320;SDS011;3701;49.346;8.798;2022-07-10T06:31:17;6.10;;;1.10;;
7320;SDS011;3701;49.346;8.798;2022-07-10T06:33:48;2.47;;;0.83;;
7320;SDS011;3701;49.346;8.798;2022-07-10T06:36:13;2.50;;;0.90;;
7320;SDS011;3701;49.346;8.798;2022-07-10T06:38:41;5.17;;;0.93;;
7320;SDS011;3701;49.346;8.798;2022-07-10T06:41:06;1.73;;;1.00;;
7320;SDS011;3701;49.346;8.798;2022-07-10T06:43:34;5.03;;;1.00;;
7320;SDS011;3701;49.346;8.798;2022-07-10T06:46:04;2.13;;;0.80;;
7320;SDS011;3701;49.346;8.798;2022-07-10T06:48:30;2.30;;;1.10;;
7320;SDS011;3701;49.346;8.798;2022-07-10T06:50:55;3.17;;;0.90;;
7320;SDS011;3701;49.346;8.798;2022-07-10T06:53:21;3.77;;;1.10;;
7320;SDS011;3701;49.346;8.798;2022-07-10T06:55:50;3.23;;;1.17;;
7320;SDS011;3701;49.346;8.798;2022-07-10T06:58:17;3.10;;;1.40;;
7320;SDS011;3701;49.346;8.798;2022-07-10T07:00:43;6.13;;;1.20;;
7320;SDS011;3701;49.346;8.798;2022-07-10T07:03:08;5.83;;;1.00;;
7320;SDS011;3701;49.346;8.798;2022-07-10T07:05:36;3.33;;;1.00;;
7320;SDS011;3701;49.346;8.798;2022-07-10T07:08:03;1.57;;;0.90;;
7320;SDS011;3701;49.346;8.798;2022-07-10T07:10:29;2.23;;;1.20;;
7320;SDS011;3701;49.346;8.798;2022-07-10T07:12:57;3.10;;;0.90;;
7320;SDS011;3701;49.346;8.798;2022-07-10T07:15:25;4.17;;;1.10;;
7320;SDS011;3701;49.346;8.798;2022-07-10T07:17:51;2.80;;;1.10;;
7320;SDS011;3701;49.346;8.798;2022-07-10T07:20:25;3.03;;;1.00;;
7320;SDS011;3701;49.346;8.798;2022-07-10T07:23:09;5.13;;;1.03;;
7320;SDS011;3701;49.346;8.798;2022-07-10T07:25:40;2.90;;;1.23;;
7320;SDS011;3701;49.346;8.798;2022-07-10T07:28:11;2.90;;;1.20;;
7320;SDS011;3701;49.346;8.798;2022-07-10T07:30:37;5.67;;;1.33;;
7320;SDS011;3701;49.346;8.798;2022-07-10T07:33:03;3.77;;;1.23;;
7320;SDS011;3701;49.346;8.798;2022-07-10T07:35:32;3.50;;;1.10;;
7320;SDS011;3701;49.346;8.798;2022-07-10T07:38:02;6.73;;;1.63;;
7320;SDS011;3701;49.346;8.798;2022-07-10T07:40:28;5.40;;;1.10;;
7320;SDS011;3701;49.346;8.798;2022-07-10T07:42:54;3.87;;;1.57;;
7320;SDS011;3701;49.346;8.798;2022-07-10T07:45:23;2.20;;;1.10;;
7320;SDS011;3701;49.346;8.798;2022-07-10T07:47:50;4.20;;;1.17;;
7320;SDS011;3701;49.346;8.798;2022-07-10T07:50:23;4.93;;;1.17;;
7320;SDS011;3701;49.346;8.798;2022-07-10T07:52:51;3.50;;;1.30;;
7320;SDS011;3701;49.346;8.798;2022-07-10T07:55:18;1.80;;;1.10;;
7320;SDS011;3701;49.346;8.798;2022-07-10T07:57:45;5.07;;;1.80;;
7320;SDS011;3701;49.346;8.798;2022-07-10T08:00:11;2.27;;;1.00;;
7320;SDS011;3701;49.346;8.798;2022-07-10T08:02:42;2.50;;;1.17;;
7320;SDS011;3701;49.346;8.798;2022-07-10T08:05:12;1.73;;;1.00;;
7320;SDS011;3701;49.346;8.798;2022-07-10T08:07:39;3.30;;;1.30;;
7320;SDS011;3701;49.346;8.798;2022-07-10T08:10:08;2.03;;;1.00;;
7320;SDS011;3701;49.346;8.798;2022-07-10T08:12:35;3.77;;;1.20;;
7320;SDS011;3701;49.346;8.798;2022-07-10T08:15:01;1.60;;;0.90;;
7320;SDS011;3701;49.346;8.798;2022-07-10T08:17:29;6.33;;;1.43;;
7320;SDS011;3701;49.346;8.798;2022-07-10T08:19:55;2.40;;;1.00;;
7320;SDS011;3701;49.346;8.798;2022-07-10T08:22:20;4.83;;;1.30;;
7320;SDS011;3701;49.346;8.798;2022-07-10T08:24:45;5.07;;;1.03;;
7320;SDS011;3701;49.346;8.798;2022-07-10T08:27:11;2.53;;;1.00;;
7320;SDS011;3701;49.346;8.798;2022-07-10T08:29:37;2.70;;;1.00;;
7320;SDS011;3701;49.346;8.798;2022-07-10T08:32:03;2.70;;;0.90;;
7320;SDS011;3701;49.346;8.798;2022-07-10T08:34:29;3.03;;;1.00;;
7320;SDS011;3701;49.346;8.798;2022-07-10T08:36:57;1.70;;;1.00;;
7320;SDS011;3701;49.346;8.798;2022-07-10T08:39:25;3.67;;;0.90;;
7320;SDS011;3701;49.346;8.798;2022-07-10T08:41:51;3.77;;;2.13;;
7320;SDS011;3701;49.346;8.798;2022-07-10T08:44:19;2.60;;;0.87;;
7320;SDS011;3701;49.346;8.798;2022-07-10T08:46:45;5.77;;;1.10;;
7320;SDS011;3701;49.346;8.798;2022-07-10T08:49:16;6.10;;;1.20;;
7320;SDS011;3701;49.346;8.798;2022-07-10T08:54:36;1.70;;;0.80;;
7320;SDS011;3701;49.346;8.798;2022-07-10T08:57:03;2.33;;;0.97;;
7320;SDS011;3701;49.346;8.798;2022-07-10T08:59:30;2.57;;;1.07;;
7320;SDS011;3701;49.346;8.798;2022-07-10T09:01:56;1.50;;;0.77;;
7320;SDS011;3701;49.346;8.798;2022-07-10T09:04:23;3.93;;;1.00;;
7320;SDS011;3701;49.346;8.798;2022-07-10T09:06:50;2.20;;;1.13;;
7320;SDS011;3701;49.346;8.798;2022-07-10T09:09:19;3.00;;;1.00;;
7320;SDS011;3701;49.346;8.798;2022-07-10T09:11:45;2.90;;;0.90;;
7320;SDS011;3701;49.346;8.798;2022-07-10T09:14:11;1.73;;;0.80;;
7320;SDS011;3701;49.346;8.798;2022-07-10T09:16:42;3.03;;;0.80;;
7320;SDS011;3701;49.346;8.798;2022-07-10T09:22:06;2.40;;;0.80;;
7320;SDS011;3701;49.346;8.798;2022-07-10T09:24:43;1.03;;;0.70;;
7320;SDS011;3701;49.346;8.798;2022-07-10T09:27:11;3.00;;;1.00;;
7320;SDS011;3701;49.346;8.798;2022-07-10T09:29:49;1.33;;;0.70;;
7320;SDS011;3701;49.346;8.798;2022-07-10T09:32:26;1.33;;;0.80;;
7320;SDS011;3701;49.346;8.798;2022-07-10T09:34:53;1.87;;;0.70;;
7320;SDS011;3701;49.346;8.798;2022-07-10T09:37:41;3.77;;;0.93;;
7320;SDS011;3701;49.346;8.798;2022-07-10T09:40:08;3.13;;;1.23;;
7320;SDS011;3701;49.346;8.798;2022-07-10T09:42:35;4.40;;;1.00;;
7320;SDS011;3701;49.346;8.798;2022-07-10T09:45:13;2.60;;;0.70;;
7320;SDS011;3701;49.346;8.798;2022-07-10T09:47:47;4.50;;;0.80;;
7320;SDS011;3701;49.346;8.798;2022-07-10T09:50:31;1.43;;;0.60;;
7320;SDS011;3701;49.346;8.798;2022-07-10T09:53:03;1.70;;;0.77;;
7320;SDS011;3701;49.346;8.798;2022-07-10T09:55:34;2.60;;;0.80;;
7320;SDS011;3701;49.346;8.798;2022-07-10T09:58:03;3.53;;;0.90;;
7320;SDS011;3701;49.346;8.798;2022-07-10T10:00:31;2.10;;;1.00;;
7320;SDS011;3701;49.346;8.798;2022-07-10T10:02:58;2.40;;;0.80;;
7320;SDS011;3701;49.346;8.798;2022-07-10T10:05:28;3.07;;;0.90;;
7320;SDS011;3701;49.346;8.798;2022-07-10T10:08:10;1.67;;;0.70;;
7320;SDS011;3701;49.346;8.798;2022-07-10T10:10:40;3.60;;;1.47;;
7320;SDS011;3701;49.346;8.798;2022-07-10T10:13:10;1.77;;;0.90;;
7320;SDS011;3701;49.346;8.798;2022-07-10T10:15:37;1.03;;;0.80;;
7320;SDS011;3701;49.346;8.798;2022-07-10T10:18:03;1.50;;;0.70;;
7320;SDS011;3701;49.346;8.798;2022-07-10T10:20:31;5.00;;;1.17;;
7320;SDS011;3701;49.346;8.798;2022-07-10T10:23:09;1.40;;;0.87;;
7320;SDS011;3701;49.346;8.798;2022-07-10T10:25:37;4.30;;;1.23;;
7320;SDS011;3701;49.346;8.798;2022-07-10T10:28:08;2.93;;;0.90;;
7320;SDS011;3701;49.346;8.798;2022-07-10T10:30:42;0.70;;;0.70;;
7320;SDS011;3701;49.346;8.798;2022-07-10T10:35:59;2.20;;;0.70;;
7320;SDS011;3701;49.346;8.798;2022-07-10T10:38:27;2.70;;;1.00;;
7320;SDS011;3701;49.346;8.798;2022-07-10T10:41:26;2.90;;;0.77;;
7320;SDS011;3701;49.346;8.798;2022-07-10T10:49:19;4.70;;;1.00;;
7320;SDS011;3701;49.346;8.798;2022-07-10T10:51:59;2.20;;;0.80;;
7320;SDS011;3701;49.346;8.798;2022-07-10T10:54:25;3.37;;;1.10;;
7320;SDS011;3701;49.346;8.798;2022-07-10T10:59:52;3.23;;;0.93;;
7320;SDS011;3701;49.346;8.798;2022-07-10T11:07:56;2.70;;;0.80;;
7320;SDS011;3701;49.346;8.798;2022-07-10T11:10:29;2.13;;;0.80;;
7320;SDS011;3701;49.346;8.798;2022-07-10T11:13:07;3.97;;;1.00;;
7320;SDS011;3701;49.346;8.798;2022-07-10T11:15:35;1.87;;;0.80;;
7320;SDS011;3701;49.346;8.798;2022-07-10T11:18:07;1.93;;;0.70;;
7320;SDS011;3701;49.346;8.798;2022-07-10T11:20:45;2.40;;;0.77;;
7320;SDS011;3701;49.346;8.798;2022-07-10T11:26:05;2.50;;;0.70;;
7320;SDS011;3701;49.346;8.798;2022-07-10T11:31:23;4.13;;;0.93;;
7320;SDS011;3701;49.346;8.798;2022-07-10T11:33:51;3.03;;;0.80;;
7320;SDS011;3701;49.346;8.798;2022-07-10T11:36:18;1.93;;;0.80;;
7320;SDS011;3701;49.346;8.798;2022-07-10T11:38:44;3.73;;;0.90;;
7320;SDS011;3701;49.346;8.798;2022-07-10T11:43:51;2.13;;;0.70;;
7320;SDS011;3701;49.346;8.798;2022-07-10T11:46:22;2.10;;;0.87;;
7320;SDS011;3701;49.346;8.798;2022-07-10T11:48:51;1.87;;;0.70;;
7320;SDS011;3701;49.346;8.798;2022-07-10T11:56:28;1.73;;;1.00;;
7320;SDS011;3701;49.346;8.798;2022-07-10T11:59:01;3.17;;;0.80;;
7320;SDS011;3701;49.346;8.798;2022-07-10T12:01:29;3.90;;;0.90;;
7320;SDS011;3701;49.346;8.798;2022-07-10T12:06:29;1.90;;;0.80;;
7320;SDS011;3701;49.346;8.798;2022-07-10T12:08:56;1.80;;;0.80;;
7320;SDS011;3701;49.346;8.798;2022-07-10T12:11:27;4.00;;;0.87;;
7320;SDS011;3701;49.346;8.798;2022-07-10T12:13:56;2.57;;;0.80;;
7320;SDS011;3701;49.346;8.798;2022-07-10T12:16:47;3.67;;;1.10;;
7320;SDS011;3701;49.346;8.798;2022-07-10T12:19:25;1.93;;;0.80;;
7320;SDS011;3701;49.346;8.798;2022-07-10T12:21:52;1.77;;;0.80;;
7320;SDS011;3701;49.346;8.798;2022-07-10T12:24:18;2.97;;;0.80;;
7320;SDS011;3701;49.346;8.798;2022-07-10T12:26:48;2.40;;;0.83;;
7320;SDS011;3701;49.346;8.798;2022-07-10T12:29:20;1.20;;;0.73;;
7320;SDS011;3701;49.346;8.798;2022-07-10T12:31:54;1.43;;;0.77;;
7320;SDS011;3701;49.346;8.798;2022-07-10T12:34:32;1.70;;;0.70;;
7320;SDS011;3701;49.346;8.798;2022-07-10T12:36:58;1.30;;;0.73;;
7320;SDS011;3701;49.346;8.798;2022-07-10T12:39:31;3.20;;;0.77;;
7320;SDS011;3701;49.346;8.798;2022-07-10T12:42:03;1.93;;;0.80;;
7320;SDS011;3701;49.346;8.798;2022-07-10T12:47:10;1.87;;;0.80;;
7320;SDS011;3701;49.346;8.798;2022-07-10T12:49:53;2.00;;;0.70;;
7320;SDS011;3701;49.346;8.798;2022-07-10T12:52:29;1.80;;;0.83;;
7320;SDS011;3701;49.346;8.798;2022-07-10T12:55:13;1.23;;;0.70;;
7320;SDS011;3701;49.346;8.798;2022-07-10T12:57:46;4.20;;;0.70;;
7320;SDS011;3701;49.346;8.798;2022-07-10T13:00:27;3.57;;;0.90;;
7320;SDS011;3701;49.346;8.798;2022-07-10T13:02:58;4.30;;;0.80;;
7320;SDS011;3701;49.346;8.798;2022-07-10T13:05:34;3.00;;;0.93;;
7320;SDS011;3701;49.346;8.798;2022-07-10T13:08:04;2.37;;;1.00;;
7320;SDS011;3701;49.346;8.798;2022-07-10T13:10:35;1.57;;;0.90;;
7320;SDS011;3701;49.346;8.798;2022-07-10T13:13:04;2.10;;;0.93;;
7320;SDS011;3701;49.346;8.798;2022-07-10T13:15:29;1.23;;;0.90;;
7320;SDS011;3701;49.346;8.798;2022-07-10T13:17:59;2.90;;;0.80;;
7320;SDS011;3701;49.346;8.798;2022-07-10T13:20:24;2.83;;;1.00;;
7320;SDS011;3701;49.346;8.798;2022-07-10T13:22:55;1.67;;;1.00;;
7320;SDS011;3701;49.346;8.798;2022-07-10T13:25:22;1.20;;;0.60;;
7320;SDS011;3701;49.346;8.798;2022-07-10T13:27:50;3.13;;;1.03;;
7320;SDS011;3701;49.346;8.798;2022-07-10T13:30:16;3.60;;;1.20;;
7320;SDS011;3701;49.346;8.798;2022-07-10T13:32:42;5.10;;;1.17;;
7320;SDS011;3701;49.346;8.798;2022-07-10T13:35:10;1.37;;;1.00;;
7320;SDS011;3701;49.346;8.798;2022-07-10T13:37:35;3.73;;;0.90;;
7320;SDS011;3701;49.346;8.798;2022-07-10T13:40:03;5.00;;;1.00;;
7320;SDS011;3701;49.346;8.798;2022-07-10T13:42:28;1.47;;;0.80;;
7320;SDS011;3701;49.346;8.798;2022-07-10T13:44:56;2.13;;;1.30;;
7320;SDS011;3701;49.346;8.798;2022-07-10T13:47:21;2.07;;;0.93;;
7320;SDS011;3701;49.346;8.798;2022-07-10T13:49:49;2.90;;;1.00;;
7320;SDS011;3701;49.346;8.798;2022-07-10T13:52:14;1.40;;;0.93;;
7320;SDS011;3701;49.346;8.798;2022-07-10T13:54:44;3.30;;;0.93;;
7320;SDS011;3701;49.346;8.798;2022-07-10T13:57:09;2.27;;;1.63;;
7320;SDS011;3701;49.346;8.798;2022-07-10T13:59:39;1.20;;;0.80;;
7320;SDS011;3701;49.346;8.798;2022-07-10T14:02:08;2.80;;;1.10;;
7320;SDS011;3701;49.346;8.798;2022-07-10T14:04:39;4.10;;;0.97;;
7320;SDS011;3701;49.346;8.798;2022-07-10T14:07:06;3.00;;;1.20;;
7320;SDS011;3701;49.346;8.798;2022-07-10T14:09:32;1.30;;;1.00;;
7320;SDS011;3701;49.346;8.798;2022-07-10T14:11:59;3.53;;;1.07;;
7320;SDS011;3701;49.346;8.798;2022-07-10T14:14:27;1.77;;;0.70;;
7320;SDS011;3701;49.346;8.798;2022-07-10T14:16:53;1.90;;;0.90;;
7320;SDS011;3701;49.346;8.798;2022-07-10T14:19:18;2.97;;;0.87;;
7320;SDS011;3701;49.346;8.798;2022-07-10T14:21:43;2.57;;;0.90;;
7320;SDS011;3701;49.346;8.798;2022-07-10T14:24:13;3.70;;;0.97;;
7320;SDS011;3701;49.346;8.798;2022-07-10T14:26:41;3.43;;;1.27;;
7320;SDS011;3701;49.346;8.798;2022-07-10T14:29:06;2.20;;;1.20;;
7320;SDS011;3701;49.346;8.798;2022-07-10T14:31:32;2.20;;;0.80;;
7320;SDS011;3701;49.346;8.798;2022-07-10T14:33:58;2.40;;;0.87;;
7320;SDS011;3701;49.346;8.798;2022-07-10T14:36:26;3.87;;;0.87;;
7320;SDS011;3701;49.346;8.798;2022-07-10T14:38:52;3.50;;;1.33;;
7320;SDS011;3701;49.346;8.798;2022-07-10T14:41:22;1.83;;;1.33;;
7320;SDS011;3701;49.346;8.798;2022-07-10T14:43:48;4.57;;;1.10;;
7320;SDS011;3701;49.346;8.798;2022-07-10T14:46:13;1.80;;;0.80;;
7320;SDS011;3701;49.346;8.798;2022-07-10T14:48:39;3.07;;;1.20;;
7320;SDS011;3701;49.346;8.798;2022-07-10T14:51:04;1.80;;;0.90;;
7320;SDS011;3701;49.346;8.798;2022-07-10T14:53:30;4.37;;;1.40;;
7320;SDS011;3701;49.346;8.798;2022-07-10T14:56:02;3.83;;;1.00;;
7320;SDS011;3701;49.346;8.798;2022-07-10T14:58:31;2.13;;;0.90;;
7320;SDS011;3701;49.346;8.798;2022-07-10T15:00:57;5.23;;;1.10;;
7320;SDS011;3701;49.346;8.798;2022-07-10T15:03:22;3.50;;;0.80;;
7320;SDS011;3701;49.346;8.798;2022-07-10T15:05:48;2.50;;;1.33;;
7320;SDS011;3701;49.346;8.798;2022-07-10T15:08:18;4.53;;;1.17;;
7320;SDS011;3701;49.346;8.798;2022-07-10T15:10:44;5.33;;;1.10;;
7320;SDS011;3701;49.346;8.798;2022-07-10T15:13:13;2.53;;;1.07;;
7320;SDS011;3701;49.346;8.798;2022-07-10T15:15:43;2.83;;;0.93;;
7320;SDS011;3701;49.346;8.798;2022-07-10T15:18:09;2.23;;;1.10;;
7320;SDS011;3701;49.346;8.798;2022-07-10T15:20:35;4.80;;;1.60;;
7320;SDS011;3701;49.346;8.798;2022-07-10T15:23:02;3.37;;;1.57;;
7320;SDS011;3701;49.346;8.798;2022-07-10T15:25:30;5.70;;;1.17;;
7320;SDS011;3701;49.346;8.798;2022-07-10T15:27:55;2.73;;;1.20;;
7320;SDS011;3701;49.346;8.798;2022-07-10T15:30:23;3.40;;;0.90;;
7320;SDS011;3701;49.346;8.798;2022-07-10T15:32:51;4.73;;;0.97;;
7320;SDS011;3701;49.346;8.798;2022-07-10T15:35:19;1.40;;;0.90;;
7320;SDS011;3701;49.346;8.798;2022-07-10T15:37:44;1.53;;;0.80;;
7320;SDS011;3701;49.346;8.798;2022-07-10T15:40:12;2.97;;;0.80;;
7320;SDS011;3701;49.346;8.798;2022-07-10T15:42:37;1.40;;;0.80;;
7320;SDS011;3701;49.346;8.798;2022-07-10T15:45:03;1.63;;;0.97;;
7320;SDS011;3701;49.346;8.798;2022-07-10T15:47:31;3.70;;;1.60;;
7320;SDS011;3701;49.346;8.798;2022-07-10T15:49:56;1.47;;;0.70;;
7320;SDS011;3701;49.346;8.798;2022-07-10T15:52:21;5.53;;;1.10;;
7320;SDS011;3701;49.346;8.798;2022-07-10T15:54:47;3.60;;;1.10;;
7320;SDS011;3701;49.346;8.798;2022-07-10T15:57:17;5.17;;;0.93;;
7320;SDS011;3701;49.346;8.798;2022-07-10T15:59:42;4.60;;;0.90;;
7320;SDS011;3701;49.346;8.798;2022-07-10T16:02:08;6.17;;;1.10;;